CCA4580 ZUCK-ZUCK
Flight info
| Callsign | CCA4580 |
|---|---|
| Flight time | 2h 18m |
| Altitude | 10800 |
| Route | CKG CJJ |
| Aircraft | A320/M-SDE3FGHIRWY/LB1 |
Departure
| Time | 2026-04-28 00:57 |
|---|---|
| Airport | Chongqing Jiangbei International Airport (ZUCK) |
Arrival
| Time | 2026-04-28 03:15 |
|---|---|
| Airport | Chongqing Jiangbei International Airport (ZUCK) |
| Time | Latitude | Longitude | Altitude | Speed | Heading |
|---|---|---|---|---|---|
| 2026-04-28 00:42 | 29.73045 | 106.66215 | 1370 ft | 0 kts | 288° |
| 2026-04-28 00:49 | 29.73047 | 106.66207 | 1370 ft | 1 kts | 288° |
| 2026-04-28 00:49 | 29.73053 | 106.66187 | 1370 ft | 3 kts | 293° |
| 2026-04-28 00:50 | 29.73070 | 106.66166 | 1369 ft | 4 kts | 335° |
| 2026-04-28 00:50 | 29.73099 | 106.66178 | 1370 ft | 5 kts | 71° |
| 2026-04-28 00:50 | 29.73109 | 106.66227 | 1370 ft | 6 kts | 78° |
| 2026-04-28 00:50 | 29.73120 | 106.66283 | 1370 ft | 7 kts | 76° |
| 2026-04-28 00:51 | 29.73133 | 106.66348 | 1370 ft | 8 kts | 93° |
| 2026-04-28 00:51 | 29.73132 | 106.66421 | 1370 ft | 9 kts | 87° |
| 2026-04-28 00:51 | 29.73131 | 106.66499 | 1370 ft | 10 kts | 88° |
| 2026-04-28 00:51 | 29.73184 | 106.66548 | 1370 ft | 10 kts | 16° |
| 2026-04-28 00:52 | 29.73259 | 106.66573 | 1370 ft | 11 kts | 17° |
| 2026-04-28 00:52 | 29.73340 | 106.66601 | 1370 ft | 12 kts | 17° |
| 2026-04-28 00:52 | 29.73426 | 106.66631 | 1370 ft | 13 kts | 17° |
| 2026-04-28 00:52 | 29.73521 | 106.66663 | 1370 ft | 14 kts | 17° |
| 2026-04-28 00:53 | 29.73626 | 106.66700 | 1370 ft | 16 kts | 17° |
| 2026-04-28 00:53 | 29.73735 | 106.66738 | 1370 ft | 16 kts | 17° |
| 2026-04-28 00:53 | 29.73847 | 106.66777 | 1369 ft | 16 kts | 17° |
| 2026-04-28 00:53 | 29.73958 | 106.66815 | 1370 ft | 16 kts | 16° |
| 2026-04-28 00:54 | 29.74069 | 106.66853 | 1369 ft | 16 kts | 17° |
| 2026-04-28 00:54 | 29.74180 | 106.66892 | 1369 ft | 16 kts | 18° |
| 2026-04-28 00:54 | 29.74290 | 106.66932 | 1369 ft | 16 kts | 17° |
| 2026-04-28 00:54 | 29.74357 | 106.67009 | 1369 ft | 15 kts | 101° |
| 2026-04-28 00:55 | 29.74321 | 106.67121 | 1369 ft | 14 kts | 110° |
| 2026-04-28 00:55 | 29.74276 | 106.67136 | 1369 ft | 4 kts | 207° |
| 2026-04-28 00:55 | 29.74269 | 106.67133 | 1369 ft | 0 kts | 202° |
| 2026-04-28 00:56 | 29.74268 | 106.67132 | 1369 ft | 1 kts | 202° |
| 2026-04-28 00:56 | 29.73995 | 106.67031 | 1370 ft | 84 kts | 197° |
| 2026-04-28 00:56 | 29.73188 | 106.66753 | 1370 ft | 155 kts | 197° |
| 2026-04-28 00:57 | 29.71970 | 106.66327 | 1498 ft | 201 kts | 196° |
| 2026-04-28 00:57 | 29.70647 | 106.65847 | 2391 ft | 198 kts | 197° |
| 2026-04-28 00:57 | 29.69362 | 106.65378 | 3397 ft | 198 kts | 197° |
| 2026-04-28 00:57 | 29.68043 | 106.64899 | 4190 ft | 210 kts | 197° |
| 2026-04-28 00:58 | 29.66615 | 106.64387 | 4693 ft | 221 kts | 196° |
| 2026-04-28 00:58 | 29.65083 | 106.64200 | 4716 ft | 223 kts | 168° |
| 2026-04-28 00:58 | 29.63726 | 106.64959 | 4656 ft | 223 kts | 136° |
| 2026-04-28 00:58 | 29.62894 | 106.66454 | 4623 ft | 224 kts | 113° |
| 2026-04-28 00:59 | 29.62372 | 106.68158 | 4580 ft | 224 kts | 108° |
| 2026-04-28 00:59 | 29.61924 | 106.69865 | 4531 ft | 224 kts | 108° |
| 2026-04-28 00:59 | 29.61479 | 106.71609 | 4591 ft | 230 kts | 107° |
| 2026-04-28 00:59 | 29.61034 | 106.73369 | 4875 ft | 228 kts | 107° |
| 2026-04-28 01:00 | 29.60596 | 106.75097 | 4890 ft | 226 kts | 107° |
| 2026-04-28 01:00 | 29.60154 | 106.76845 | 4895 ft | 226 kts | 107° |
| 2026-04-28 01:00 | 29.59720 | 106.78559 | 4897 ft | 226 kts | 107° |
| 2026-04-28 01:00 | 29.59347 | 106.80312 | 4888 ft | 227 kts | 94° |
| 2026-04-28 01:01 | 29.59666 | 106.82094 | 4882 ft | 230 kts | 60° |
| 2026-04-28 01:01 | 29.60763 | 106.83420 | 4905 ft | 232 kts | 35° |
| 2026-04-28 01:01 | 29.62150 | 106.84363 | 4909 ft | 233 kts | 29° |
| 2026-04-28 01:01 | 29.63586 | 106.85217 | 4903 ft | 233 kts | 27° |
| 2026-04-28 01:02 | 29.65039 | 106.86058 | 4900 ft | 233 kts | 27° |
| 2026-04-28 01:02 | 29.66483 | 106.86888 | 4899 ft | 233 kts | 27° |
| 2026-04-28 01:02 | 29.67932 | 106.87720 | 4898 ft | 233 kts | 27° |
| 2026-04-28 01:02 | 29.69387 | 106.88554 | 4898 ft | 233 kts | 27° |
| 2026-04-28 01:03 | 29.70831 | 106.89383 | 4898 ft | 233 kts | 27° |
| 2026-04-28 01:03 | 29.72293 | 106.90221 | 4898 ft | 233 kts | 27° |
| 2026-04-28 01:03 | 29.73743 | 106.91052 | 4898 ft | 234 kts | 27° |
| 2026-04-28 01:03 | 29.75197 | 106.91885 | 4898 ft | 234 kts | 27° |
| 2026-04-28 01:04 | 29.76662 | 106.92713 | 4897 ft | 234 kts | 24° |
| 2026-04-28 01:04 | 29.78178 | 106.93379 | 4899 ft | 234 kts | 19° |
| 2026-04-28 01:04 | 29.79727 | 106.93970 | 4899 ft | 234 kts | 18° |
| 2026-04-28 01:04 | 29.81261 | 106.94537 | 4898 ft | 234 kts | 18° |
| 2026-04-28 01:05 | 29.82832 | 106.95115 | 4898 ft | 234 kts | 18° |
| 2026-04-28 01:05 | 29.84376 | 106.95682 | 4898 ft | 234 kts | 18° |
| 2026-04-28 01:05 | 29.85930 | 106.96252 | 4898 ft | 234 kts | 18° |
| 2026-04-28 01:05 | 29.87483 | 106.96822 | 4896 ft | 232 kts | 18° |
| 2026-04-28 01:06 | 29.88970 | 106.97366 | 4881 ft | 217 kts | 18° |
| 2026-04-28 01:06 | 29.90362 | 106.97875 | 4872 ft | 203 kts | 18° |
| 2026-04-28 01:06 | 29.91676 | 106.98353 | 4885 ft | 200 kts | 18° |
| 2026-04-28 01:06 | 29.93020 | 106.98810 | 4940 ft | 200 kts | 10° |
| 2026-04-28 01:07 | 29.94382 | 106.98621 | 4977 ft | 201 kts | 334° |
| 2026-04-28 01:07 | 29.95369 | 106.97546 | 4931 ft | 198 kts | 298° |
| 2026-04-28 01:07 | 29.95930 | 106.96084 | 4923 ft | 197 kts | 289° |
| 2026-04-28 01:07 | 29.96391 | 106.94609 | 4908 ft | 197 kts | 287° |
| 2026-04-28 01:08 | 29.96819 | 106.93194 | 4902 ft | 197 kts | 287° |
| 2026-04-28 01:08 | 29.97267 | 106.91701 | 4900 ft | 197 kts | 287° |
| 2026-04-28 01:08 | 29.97715 | 106.90205 | 4899 ft | 197 kts | 287° |
| 2026-04-28 01:08 | 29.98158 | 106.88722 | 4898 ft | 197 kts | 287° |
| 2026-04-28 01:09 | 29.98602 | 106.87231 | 4898 ft | 197 kts | 287° |
| 2026-04-28 01:09 | 29.99044 | 106.85746 | 4898 ft | 197 kts | 287° |
| 2026-04-28 01:09 | 29.99487 | 106.84257 | 4898 ft | 196 kts | 287° |
| 2026-04-28 01:09 | 29.99931 | 106.82758 | 4898 ft | 196 kts | 287° |
| 2026-04-28 01:10 | 30.00243 | 106.81240 | 4884 ft | 194 kts | 268° |
| 2026-04-28 01:10 | 29.99965 | 106.79726 | 4904 ft | 193 kts | 250° |
| 2026-04-28 01:10 | 29.99511 | 106.78262 | 4901 ft | 193 kts | 248° |
| 2026-04-28 01:10 | 29.98967 | 106.76863 | 4888 ft | 191 kts | 232° |
| 2026-04-28 01:11 | 29.97929 | 106.75925 | 4900 ft | 190 kts | 206° |
| 2026-04-28 01:11 | 29.96714 | 106.75368 | 4902 ft | 190 kts | 198° |
| 2026-04-28 01:11 | 29.95446 | 106.74913 | 4899 ft | 189 kts | 195° |
| 2026-04-28 01:11 | 29.94190 | 106.74487 | 4898 ft | 189 kts | 195° |
| 2026-04-28 01:12 | 29.92923 | 106.74056 | 4896 ft | 189 kts | 195° |
| 2026-04-28 01:12 | 29.91661 | 106.73621 | 4774 ft | 189 kts | 196° |
| 2026-04-28 01:12 | 29.90407 | 106.73184 | 4530 ft | 188 kts | 196° |
| 2026-04-28 01:12 | 29.89154 | 106.72746 | 4278 ft | 188 kts | 196° |
| 2026-04-28 01:13 | 29.87908 | 106.72309 | 4025 ft | 184 kts | 196° |
| 2026-04-28 01:13 | 29.85661 | 106.71520 | 3552 ft | 158 kts | 195° |
| 2026-04-28 01:13 | 29.84651 | 106.71166 | 3327 ft | 144 kts | 195° |
| 2026-04-28 01:14 | 29.83735 | 106.70846 | 3122 ft | 133 kts | 195° |
| 2026-04-28 01:14 | 29.82855 | 106.70538 | 2965 ft | 132 kts | 195° |
| 2026-04-28 01:14 | 29.81971 | 106.70230 | 2803 ft | 132 kts | 195° |
| 2026-04-28 01:14 | 29.81093 | 106.69923 | 2638 ft | 132 kts | 195° |
| 2026-04-28 01:15 | 29.80218 | 106.69618 | 2468 ft | 131 kts | 195° |
| 2026-04-28 01:15 | 29.79340 | 106.69312 | 2293 ft | 131 kts | 195° |
| 2026-04-28 01:15 | 29.78475 | 106.69011 | 2117 ft | 131 kts | 195° |
| 2026-04-28 01:15 | 29.77600 | 106.68705 | 1937 ft | 130 kts | 195° |
| 2026-04-28 01:16 | 29.76735 | 106.68403 | 1758 ft | 130 kts | 195° |
| 2026-04-28 01:16 | 29.75875 | 106.68098 | 1563 ft | 130 kts | 195° |
| 2026-04-28 01:16 | 29.75019 | 106.67796 | 1388 ft | 129 kts | 194° |
| 2026-04-28 01:16 | 29.74178 | 106.67503 | 1374 ft | 140 kts | 195° |
| 2026-04-28 01:17 | 29.73161 | 106.67157 | 1817 ft | 158 kts | 195° |
| 2026-04-28 01:17 | 29.72159 | 106.66824 | 2707 ft | 147 kts | 195° |
| 2026-04-28 01:17 | 29.71235 | 106.66514 | 3418 ft | 144 kts | 195° |
| 2026-04-28 01:17 | 29.70217 | 106.66171 | 3935 ft | 161 kts | 195° |
| 2026-04-28 01:18 | 29.69083 | 106.65808 | 4495 ft | 180 kts | 190° |
| 2026-04-28 01:18 | 29.67784 | 106.65804 | 5112 ft | 198 kts | 171° |
| 2026-04-28 01:18 | 29.66419 | 106.66322 | 5642 ft | 226 kts | 147° |
| 2026-04-28 01:18 | 29.65374 | 106.67878 | 5817 ft | 257 kts | 109° |
| 2026-04-28 01:19 | 29.65259 | 106.69830 | 5898 ft | 240 kts | 81° |
| 2026-04-28 01:19 | 29.65891 | 106.71510 | 5880 ft | 227 kts | 49° |
| 2026-04-28 01:19 | 29.67125 | 106.72524 | 5887 ft | 213 kts | 25° |
| 2026-04-28 01:19 | 29.68467 | 106.73133 | 5889 ft | 206 kts | 19° |
| 2026-04-28 01:20 | 29.69850 | 106.73669 | 5913 ft | 221 kts | 18° |
| 2026-04-28 01:20 | 29.71371 | 106.74239 | 5917 ft | 233 kts | 18° |
| 2026-04-28 01:20 | 29.72904 | 106.74812 | 5905 ft | 235 kts | 18° |
| 2026-04-28 01:20 | 29.74470 | 106.75395 | 5900 ft | 235 kts | 18° |
| 2026-04-28 01:21 | 29.76027 | 106.75976 | 5898 ft | 235 kts | 18° |
| 2026-04-28 01:21 | 29.77568 | 106.76551 | 5897 ft | 235 kts | 18° |
| 2026-04-28 01:21 | 29.79132 | 106.77134 | 5897 ft | 235 kts | 18° |
| 2026-04-28 01:21 | 29.80695 | 106.77718 | 5896 ft | 235 kts | 18° |
| 2026-04-28 01:22 | 29.82252 | 106.78299 | 5896 ft | 235 kts | 18° |
| 2026-04-28 01:22 | 29.83798 | 106.78877 | 5896 ft | 235 kts | 18° |
| 2026-04-28 01:22 | 29.85349 | 106.79457 | 5896 ft | 235 kts | 18° |
| 2026-04-28 01:22 | 29.86911 | 106.80042 | 5896 ft | 235 kts | 18° |
| 2026-04-28 01:23 | 29.88461 | 106.80621 | 5896 ft | 235 kts | 18° |
| 2026-04-28 01:23 | 29.90025 | 106.81204 | 5896 ft | 235 kts | 18° |
| 2026-04-28 01:23 | 29.91587 | 106.81787 | 5896 ft | 235 kts | 18° |
| 2026-04-28 01:23 | 29.93135 | 106.82364 | 5896 ft | 235 kts | 18° |
| 2026-04-28 01:24 | 29.94677 | 106.82938 | 5885 ft | 225 kts | 18° |
| 2026-04-28 01:24 | 29.96116 | 106.83474 | 5874 ft | 210 kts | 18° |
| 2026-04-28 01:24 | 29.97461 | 106.83974 | 5975 ft | 204 kts | 18° |
| 2026-04-28 01:24 | 29.98835 | 106.84361 | 5916 ft | 203 kts | 1° |
| 2026-04-28 01:25 | 30.00164 | 106.83899 | 5890 ft | 202 kts | 322° |
| 2026-04-28 01:25 | 30.00964 | 106.82632 | 5892 ft | 199 kts | 285° |
| 2026-04-28 01:25 | 30.00957 | 106.81060 | 5906 ft | 196 kts | 255° |
| 2026-04-28 01:25 | 30.00541 | 106.79561 | 5908 ft | 195 kts | 248° |
| 2026-04-28 01:26 | 30.00066 | 106.78106 | 5901 ft | 195 kts | 247° |
| 2026-04-28 01:26 | 29.99384 | 106.76777 | 5895 ft | 192 kts | 222° |
| 2026-04-28 01:26 | 29.98258 | 106.75981 | 5924 ft | 192 kts | 203° |
| 2026-04-28 01:26 | 29.96994 | 106.75454 | 5830 ft | 192 kts | 197° |
| 2026-04-28 01:27 | 29.95719 | 106.75009 | 5590 ft | 191 kts | 195° |
| 2026-04-28 01:27 | 29.94449 | 106.74580 | 5336 ft | 190 kts | 196° |
| 2026-04-28 01:27 | 29.93199 | 106.74149 | 5085 ft | 189 kts | 196° |
| 2026-04-28 01:27 | 29.91938 | 106.73711 | 4833 ft | 189 kts | 196° |
| 2026-04-28 01:28 | 29.90685 | 106.73274 | 4582 ft | 186 kts | 196° |
| 2026-04-28 01:28 | 29.89481 | 106.72852 | 4335 ft | 172 kts | 196° |
| 2026-04-28 01:28 | 29.88397 | 106.72472 | 4095 ft | 158 kts | 196° |
| 2026-04-28 01:28 | 29.87396 | 106.72119 | 3871 ft | 144 kts | 196° |
| 2026-04-28 01:29 | 29.86478 | 106.71799 | 3666 ft | 134 kts | 195° |
| 2026-04-28 01:29 | 29.85590 | 106.71491 | 3507 ft | 133 kts | 196° |
| 2026-04-28 01:29 | 29.84708 | 106.71187 | 3346 ft | 133 kts | 195° |
| 2026-04-28 01:29 | 29.83827 | 106.70883 | 3182 ft | 132 kts | 195° |
| 2026-04-28 01:30 | 29.82942 | 106.70576 | 3013 ft | 132 kts | 195° |
| 2026-04-28 01:30 | 29.82072 | 106.70269 | 2843 ft | 132 kts | 196° |
| 2026-04-28 01:30 | 29.81191 | 106.69958 | 2666 ft | 131 kts | 196° |
| 2026-04-28 01:30 | 29.80329 | 106.69656 | 2490 ft | 131 kts | 195° |
| 2026-04-28 01:31 | 29.79450 | 106.69350 | 2309 ft | 130 kts | 195° |
| 2026-04-28 01:31 | 29.78587 | 106.69053 | 2134 ft | 130 kts | 195° |
| 2026-04-28 01:31 | 29.77723 | 106.68752 | 1958 ft | 130 kts | 195° |
| 2026-04-28 01:31 | 29.76867 | 106.68451 | 1789 ft | 129 kts | 195° |
| 2026-04-28 01:32 | 29.75998 | 106.68147 | 1599 ft | 129 kts | 195° |
| 2026-04-28 01:32 | 29.75145 | 106.67846 | 1420 ft | 128 kts | 196° |
| 2026-04-28 01:32 | 29.74331 | 106.67556 | 1370 ft | 126 kts | 196° |
| 2026-04-28 01:32 | 29.73361 | 106.67215 | 1609 ft | 157 kts | 196° |
| 2026-04-28 01:33 | 29.72274 | 106.66833 | 2160 ft | 170 kts | 196° |
| 2026-04-28 01:33 | 29.71145 | 106.66442 | 2813 ft | 177 kts | 196° |
| 2026-04-28 01:33 | 29.69927 | 106.66028 | 3480 ft | 190 kts | 195° |
| 2026-04-28 01:33 | 29.68645 | 106.65598 | 4226 ft | 196 kts | 195° |
| 2026-04-28 01:34 | 29.67313 | 106.65165 | 4939 ft | 206 kts | 192° |
| 2026-04-28 01:34 | 29.65838 | 106.65205 | 5441 ft | 225 kts | 159° |
| 2026-04-28 01:34 | 29.64597 | 106.66300 | 5818 ft | 229 kts | 122° |
| 2026-04-28 01:34 | 29.64189 | 106.68043 | 5891 ft | 233 kts | 85° |
| 2026-04-28 01:35 | 29.64534 | 106.69854 | 5906 ft | 233 kts | 76° |
| 2026-04-28 01:35 | 29.64970 | 106.71657 | 5901 ft | 233 kts | 76° |
| 2026-04-28 01:35 | 29.65445 | 106.73431 | 5893 ft | 234 kts | 64° |
| 2026-04-28 01:35 | 29.66512 | 106.74851 | 5894 ft | 235 kts | 37° |
| 2026-04-28 01:36 | 29.67870 | 106.75885 | 5902 ft | 236 kts | 32° |
| 2026-04-28 01:36 | 29.69270 | 106.76904 | 5899 ft | 236 kts | 34° |
| 2026-04-28 01:36 | 29.70659 | 106.77884 | 5898 ft | 237 kts | 27° |
| 2026-04-28 01:36 | 29.72178 | 106.78635 | 5899 ft | 237 kts | 19° |
| 2026-04-28 01:37 | 29.73742 | 106.79182 | 5900 ft | 237 kts | 16° |
| 2026-04-28 01:37 | 29.75343 | 106.79698 | 5899 ft | 237 kts | 16° |
| 2026-04-28 01:37 | 29.76919 | 106.80215 | 5898 ft | 237 kts | 17° |
| 2026-04-28 01:37 | 29.78497 | 106.80749 | 5898 ft | 237 kts | 17° |
| 2026-04-28 01:38 | 29.80075 | 106.81290 | 5898 ft | 237 kts | 17° |
| 2026-04-28 01:38 | 29.81650 | 106.81836 | 5898 ft | 237 kts | 17° |
| 2026-04-28 01:38 | 29.83225 | 106.82383 | 5898 ft | 237 kts | 17° |
| 2026-04-28 01:38 | 29.84820 | 106.82938 | 5898 ft | 237 kts | 17° |
| 2026-04-28 01:39 | 29.86385 | 106.83482 | 5898 ft | 237 kts | 17° |
| 2026-04-28 01:39 | 29.87980 | 106.84038 | 5898 ft | 237 kts | 17° |
| 2026-04-28 01:39 | 29.89551 | 106.84586 | 5898 ft | 237 kts | 17° |
| 2026-04-28 01:39 | 29.91139 | 106.85139 | 5898 ft | 237 kts | 17° |
| 2026-04-28 01:40 | 29.92705 | 106.85686 | 5898 ft | 238 kts | 17° |
| 2026-04-28 01:40 | 29.94287 | 106.86238 | 5898 ft | 238 kts | 17° |
| 2026-04-28 01:40 | 29.95882 | 106.86795 | 5897 ft | 236 kts | 17° |
| 2026-04-28 01:40 | 29.97399 | 106.87324 | 5882 ft | 222 kts | 17° |
| 2026-04-28 01:41 | 29.98830 | 106.87824 | 5873 ft | 207 kts | 17° |
| 2026-04-28 01:41 | 30.00172 | 106.88294 | 5883 ft | 203 kts | 17° |
| 2026-04-28 01:41 | 30.01525 | 106.88768 | 5892 ft | 203 kts | 17° |
| 2026-04-28 01:41 | 30.02876 | 106.89242 | 5895 ft | 203 kts | 17° |
| 2026-04-28 01:42 | 30.04241 | 106.89631 | 5924 ft | 202 kts | 1° |
| 2026-04-28 01:42 | 30.05547 | 106.89119 | 5941 ft | 201 kts | 316° |
| 2026-04-28 01:42 | 30.06224 | 106.87766 | 5939 ft | 198 kts | 288° |
| 2026-04-28 01:42 | 30.06681 | 106.86250 | 5918 ft | 198 kts | 287° |
| 2026-04-28 01:43 | 30.07164 | 106.84749 | 5906 ft | 198 kts | 289° |
| 2026-04-28 01:43 | 30.07684 | 106.83278 | 5901 ft | 199 kts | 291° |
| 2026-04-28 01:43 | 30.08225 | 106.81806 | 5898 ft | 198 kts | 288° |
| 2026-04-28 01:43 | 30.08318 | 106.80250 | 5882 ft | 195 kts | 254° |
| 2026-04-28 01:44 | 30.07644 | 106.78939 | 5892 ft | 192 kts | 220° |
| 2026-04-28 01:44 | 30.06474 | 106.78245 | 5908 ft | 191 kts | 197° |
| 2026-04-28 01:44 | 30.05184 | 106.77814 | 5906 ft | 191 kts | 194° |
| 2026-04-28 01:44 | 30.03905 | 106.77411 | 5901 ft | 191 kts | 195° |
| 2026-04-28 01:45 | 30.02638 | 106.76995 | 5934 ft | 191 kts | 195° |
| 2026-04-28 01:45 | 30.01352 | 106.76563 | 5916 ft | 191 kts | 196° |
| 2026-04-28 01:45 | 30.00082 | 106.76131 | 5905 ft | 191 kts | 196° |
| 2026-04-28 01:45 | 29.98812 | 106.75693 | 5901 ft | 191 kts | 196° |
| 2026-04-28 01:46 | 29.97532 | 106.75250 | 5894 ft | 192 kts | 196° |
| 2026-04-28 01:46 | 29.96264 | 106.74812 | 5731 ft | 192 kts | 196° |
| 2026-04-28 01:46 | 29.94981 | 106.74366 | 5474 ft | 191 kts | 196° |
| 2026-04-28 01:46 | 29.93717 | 106.73924 | 5220 ft | 190 kts | 196° |
| 2026-04-28 01:47 | 29.92456 | 106.73483 | 4967 ft | 189 kts | 196° |
| 2026-04-28 01:47 | 29.91209 | 106.73046 | 4718 ft | 189 kts | 196° |
| 2026-04-28 01:47 | 29.89953 | 106.72606 | 4465 ft | 185 kts | 196° |
| 2026-04-28 01:47 | 29.88765 | 106.72190 | 4215 ft | 172 kts | 196° |
| 2026-04-28 01:48 | 29.87672 | 106.71806 | 3982 ft | 158 kts | 196° |
| 2026-04-28 01:48 | 29.86668 | 106.71455 | 3759 ft | 144 kts | 196° |
| 2026-04-28 01:48 | 29.85757 | 106.71136 | 3554 ft | 133 kts | 196° |
| 2026-04-28 01:48 | 29.84879 | 106.70829 | 3396 ft | 132 kts | 195° |
| 2026-04-28 01:49 | 29.84005 | 106.70525 | 3236 ft | 132 kts | 195° |
| 2026-04-28 01:49 | 29.83133 | 106.70221 | 3073 ft | 131 kts | 196° |
| 2026-04-28 01:49 | 29.82263 | 106.69913 | 2907 ft | 131 kts | 196° |
| 2026-04-28 01:49 | 29.81393 | 106.69606 | 2736 ft | 131 kts | 196° |
| 2026-04-28 01:50 | 29.80524 | 106.69303 | 2561 ft | 130 kts | 196° |
| 2026-04-28 01:50 | 29.79656 | 106.69004 | 2384 ft | 130 kts | 195° |
| 2026-04-28 01:50 | 29.78797 | 106.68707 | 2207 ft | 130 kts | 196° |
| 2026-04-28 01:50 | 29.77937 | 106.68409 | 2032 ft | 129 kts | 196° |
| 2026-04-28 01:51 | 29.77072 | 106.68108 | 1859 ft | 129 kts | 195° |
| 2026-04-28 01:51 | 29.76219 | 106.67812 | 1687 ft | 128 kts | 195° |
| 2026-04-28 01:51 | 29.75361 | 106.67513 | 1521 ft | 128 kts | 196° |
| 2026-04-28 01:51 | 29.74517 | 106.67220 | 1373 ft | 122 kts | 196° |
| 2026-04-28 01:52 | 29.73740 | 106.66934 | 1371 ft | 135 kts | 199° |
| 2026-04-28 01:52 | 29.72719 | 106.66544 | 1690 ft | 165 kts | 197° |
| 2026-04-28 01:52 | 29.71670 | 106.66168 | 2586 ft | 156 kts | 197° |
| 2026-04-28 01:52 | 29.70690 | 106.65836 | 3427 ft | 150 kts | 195° |
| 2026-04-28 01:53 | 29.69645 | 106.65520 | 3969 ft | 165 kts | 192° |
| 2026-04-28 01:53 | 29.68459 | 106.65453 | 4495 ft | 181 kts | 172° |
| 2026-04-28 01:53 | 29.67212 | 106.65813 | 5092 ft | 193 kts | 165° |
| 2026-04-28 01:53 | 29.65995 | 106.66524 | 5636 ft | 210 kts | 139° |
| 2026-04-28 01:54 | 29.65300 | 106.68040 | 5869 ft | 217 kts | 100° |
| 2026-04-28 01:54 | 29.65444 | 106.69760 | 5903 ft | 219 kts | 74° |
| 2026-04-28 01:54 | 29.66232 | 106.71251 | 5899 ft | 222 kts | 53° |
| 2026-04-28 01:54 | 29.67235 | 106.72650 | 5887 ft | 231 kts | 51° |
| 2026-04-28 01:55 | 29.68273 | 106.74068 | 5894 ft | 233 kts | 51° |
| 2026-04-28 01:55 | 29.69313 | 106.75519 | 5897 ft | 233 kts | 52° |
| 2026-04-28 01:55 | 29.70332 | 106.76969 | 5897 ft | 233 kts | 52° |
| 2026-04-28 01:55 | 29.71489 | 106.78273 | 5881 ft | 234 kts | 32° |
| 2026-04-28 01:56 | 29.72987 | 106.78964 | 5904 ft | 235 kts | 17° |
| 2026-04-28 01:56 | 29.74562 | 106.79478 | 5901 ft | 235 kts | 15° |
| 2026-04-28 01:56 | 29.76124 | 106.79971 | 5899 ft | 235 kts | 16° |
| 2026-04-28 01:56 | 29.77710 | 106.80488 | 5898 ft | 235 kts | 16° |
| 2026-04-28 01:57 | 29.79272 | 106.81016 | 5898 ft | 235 kts | 17° |
| 2026-04-28 01:57 | 29.80840 | 106.81555 | 5898 ft | 235 kts | 17° |
| 2026-04-28 01:57 | 29.82390 | 106.82091 | 5898 ft | 235 kts | 17° |
| 2026-04-28 01:57 | 29.83954 | 106.82635 | 5898 ft | 235 kts | 17° |
| 2026-04-28 01:58 | 29.85520 | 106.83179 | 5898 ft | 235 kts | 17° |
| 2026-04-28 01:58 | 29.87095 | 106.83727 | 5898 ft | 235 kts | 17° |
| 2026-04-28 01:58 | 29.88660 | 106.84272 | 5898 ft | 235 kts | 17° |
| 2026-04-28 01:58 | 29.90216 | 106.84815 | 5898 ft | 235 kts | 17° |
| 2026-04-28 01:59 | 29.91789 | 106.85363 | 5898 ft | 235 kts | 17° |
| 2026-04-28 01:59 | 29.93353 | 106.85912 | 5898 ft | 235 kts | 17° |
| 2026-04-28 01:59 | 29.94913 | 106.86460 | 5898 ft | 235 kts | 17° |
| 2026-04-28 01:59 | 29.96476 | 106.87007 | 5898 ft | 236 kts | 17° |
| 2026-04-28 02:00 | 29.98059 | 106.87560 | 5898 ft | 236 kts | 17° |
| 2026-04-28 02:00 | 29.99632 | 106.87929 | 5876 ft | 230 kts | 359° |
| 2026-04-28 02:00 | 30.01083 | 106.87412 | 5855 ft | 210 kts | 323° |
| 2026-04-28 02:00 | 30.01953 | 106.86150 | 5910 ft | 199 kts | 294° |
| 2026-04-28 02:01 | 30.02475 | 106.84681 | 5913 ft | 199 kts | 288° |
| 2026-04-28 02:01 | 30.02939 | 106.83171 | 5904 ft | 198 kts | 287° |
| 2026-04-28 02:01 | 30.03388 | 106.81674 | 5900 ft | 198 kts | 287° |
| 2026-04-28 02:01 | 30.03813 | 106.80159 | 5894 ft | 197 kts | 278° |
| 2026-04-28 02:02 | 30.03626 | 106.78625 | 5881 ft | 194 kts | 240° |
| 2026-04-28 02:02 | 30.02692 | 106.77576 | 5900 ft | 192 kts | 208° |
| 2026-04-28 02:02 | 30.01448 | 106.76987 | 5909 ft | 191 kts | 198° |
| 2026-04-28 02:02 | 30.00184 | 106.76543 | 5902 ft | 191 kts | 195° |
| 2026-04-28 02:03 | 29.98898 | 106.76116 | 5899 ft | 191 kts | 195° |
| 2026-04-28 02:03 | 29.97624 | 106.75689 | 5920 ft | 191 kts | 195° |
| 2026-04-28 02:03 | 29.96352 | 106.75256 | 5706 ft | 191 kts | 196° |
| 2026-04-28 02:03 | 29.95085 | 106.74819 | 5455 ft | 190 kts | 196° |
| 2026-04-28 02:04 | 29.93824 | 106.74379 | 5208 ft | 189 kts | 196° |
| 2026-04-28 02:04 | 29.92566 | 106.73940 | 4961 ft | 189 kts | 196° |
| 2026-04-28 02:04 | 29.91328 | 106.73505 | 4713 ft | 184 kts | 196° |
| 2026-04-28 02:04 | 29.90148 | 106.73088 | 4470 ft | 170 kts | 196° |
| 2026-04-28 02:05 | 29.89068 | 106.72706 | 4235 ft | 156 kts | 197° |
| 2026-04-28 02:05 | 29.88080 | 106.72353 | 4013 ft | 142 kts | 197° |
| 2026-04-28 02:05 | 29.87173 | 106.72034 | 3808 ft | 132 kts | 196° |
| 2026-04-28 02:05 | 29.86290 | 106.71728 | 3650 ft | 132 kts | 196° |
| 2026-04-28 02:06 | 29.85421 | 106.71427 | 3490 ft | 131 kts | 196° |
| 2026-04-28 02:06 | 29.84546 | 106.71124 | 3326 ft | 131 kts | 196° |
| 2026-04-28 02:06 | 29.83674 | 106.70823 | 3160 ft | 131 kts | 196° |
| 2026-04-28 02:06 | 29.82802 | 106.70521 | 2989 ft | 130 kts | 196° |
| 2026-04-28 02:07 | 29.81944 | 106.70222 | 2817 ft | 130 kts | 196° |
| 2026-04-28 02:07 | 29.81078 | 106.69920 | 2640 ft | 130 kts | 196° |
| 2026-04-28 02:07 | 29.80216 | 106.69619 | 2463 ft | 129 kts | 196° |
| 2026-04-28 02:07 | 29.79353 | 106.69318 | 2286 ft | 129 kts | 195° |
| 2026-04-28 02:08 | 29.78496 | 106.69019 | 2114 ft | 129 kts | 196° |
| 2026-04-28 02:08 | 29.77638 | 106.68720 | 1936 ft | 128 kts | 195° |
| 2026-04-28 02:08 | 29.76790 | 106.68409 | 1759 ft | 128 kts | 196° |
| 2026-04-28 02:08 | 29.75945 | 106.68098 | 1602 ft | 127 kts | 196° |
| 2026-04-28 02:09 | 29.75089 | 106.67822 | 1392 ft | 126 kts | 194° |
| 2026-04-28 02:09 | 29.74253 | 106.67527 | 1378 ft | 143 kts | 196° |
| 2026-04-28 02:09 | 29.73203 | 106.67183 | 1765 ft | 168 kts | 193° |
| 2026-04-28 02:09 | 29.72033 | 106.66843 | 2416 ft | 182 kts | 192° |
| 2026-04-28 02:10 | 29.70793 | 106.66512 | 3121 ft | 191 kts | 192° |
| 2026-04-28 02:10 | 29.69486 | 106.66386 | 3802 ft | 194 kts | 168° |
| 2026-04-28 02:10 | 29.68364 | 106.67189 | 4445 ft | 198 kts | 128° |
| 2026-04-28 02:10 | 29.67941 | 106.68681 | 5124 ft | 202 kts | 87° |
| 2026-04-28 02:11 | 29.68338 | 106.69981 | 5652 ft | 210 kts | 52° |
| 2026-04-28 02:11 | 29.68977 | 106.70638 | 5907 ft | 221 kts | 32° |
| 2026-04-28 02:11 | 29.69858 | 106.71192 | 6067 ft | 231 kts | 27° |
| 2026-04-28 02:12 | 29.71315 | 106.72014 | 6073 ft | 233 kts | 26° |
| 2026-04-28 02:12 | 29.72763 | 106.72825 | 6080 ft | 233 kts | 26° |
| 2026-04-28 02:12 | 29.74210 | 106.73650 | 6083 ft | 233 kts | 26° |
| 2026-04-28 02:12 | 29.75671 | 106.74490 | 6085 ft | 233 kts | 26° |
| 2026-04-28 02:13 | 29.77071 | 106.75398 | 6073 ft | 234 kts | 33° |
| 2026-04-28 02:13 | 29.78441 | 106.76453 | 6028 ft | 234 kts | 35° |
| 2026-04-28 02:13 | 29.79768 | 106.77506 | 5983 ft | 234 kts | 35° |
| 2026-04-28 02:13 | 29.81115 | 106.78565 | 5954 ft | 234 kts | 35° |
| 2026-04-28 02:14 | 29.82456 | 106.79604 | 5933 ft | 233 kts | 35° |
| 2026-04-28 02:14 | 29.83805 | 106.80640 | 5919 ft | 234 kts | 34° |
| 2026-04-28 02:14 | 29.85170 | 106.81684 | 5910 ft | 234 kts | 34° |
| 2026-04-28 02:14 | 29.86521 | 106.82713 | 5905 ft | 234 kts | 34° |
| 2026-04-28 02:15 | 29.89360 | 106.84531 | 5899 ft | 235 kts | 21° |
| 2026-04-28 02:15 | 29.90920 | 106.85117 | 5901 ft | 235 kts | 17° |
| 2026-04-28 02:15 | 29.92476 | 106.85649 | 5898 ft | 235 kts | 17° |
| 2026-04-28 02:16 | 29.94061 | 106.86186 | 5898 ft | 235 kts | 17° |
| 2026-04-28 02:16 | 29.95612 | 106.86716 | 5897 ft | 235 kts | 17° |
| 2026-04-28 02:16 | 29.97213 | 106.87090 | 5873 ft | 231 kts | 358° |
| 2026-04-28 02:16 | 29.98607 | 106.86435 | 5840 ft | 210 kts | 313° |
| 2026-04-28 02:17 | 29.99190 | 106.85008 | 5878 ft | 198 kts | 277° |
| 2026-04-28 02:17 | 29.99276 | 106.83429 | 5927 ft | 197 kts | 269° |
| 2026-04-28 02:17 | 29.99270 | 106.81826 | 5909 ft | 198 kts | 267° |
| 2026-04-28 02:17 | 29.99249 | 106.80249 | 5900 ft | 198 kts | 267° |
| 2026-04-28 02:18 | 29.99224 | 106.78670 | 5902 ft | 197 kts | 267° |
| 2026-04-28 02:18 | 29.99141 | 106.77088 | 5888 ft | 195 kts | 254° |
| 2026-04-28 02:18 | 29.98420 | 106.75815 | 5882 ft | 192 kts | 217° |
| 2026-04-28 02:18 | 29.97237 | 106.75113 | 5909 ft | 192 kts | 199° |
| 2026-04-28 02:19 | 29.95980 | 106.74645 | 5783 ft | 191 kts | 196° |
| 2026-04-28 02:19 | 29.94708 | 106.74225 | 5496 ft | 190 kts | 195° |
| 2026-04-28 02:19 | 29.93440 | 106.73806 | 5212 ft | 190 kts | 195° |
| 2026-04-28 02:19 | 29.92177 | 106.73380 | 4939 ft | 189 kts | 195° |
| 2026-04-28 02:20 | 29.90928 | 106.72951 | 4670 ft | 188 kts | 196° |
| 2026-04-28 02:20 | 29.89676 | 106.72515 | 4404 ft | 187 kts | 196° |
| 2026-04-28 02:20 | 29.88435 | 106.72079 | 4147 ft | 186 kts | 196° |
| 2026-04-28 02:20 | 29.87238 | 106.71654 | 3889 ft | 175 kts | 196° |
| 2026-04-28 02:21 | 29.86123 | 106.71261 | 3662 ft | 160 kts | 196° |
| 2026-04-28 02:21 | 29.85117 | 106.70908 | 3444 ft | 146 kts | 196° |
| 2026-04-28 02:21 | 29.84190 | 106.70583 | 3237 ft | 132 kts | 195° |
| 2026-04-28 02:21 | 29.83320 | 106.70281 | 3072 ft | 130 kts | 195° |
| 2026-04-28 02:22 | 29.82464 | 106.69984 | 2918 ft | 129 kts | 195° |
| 2026-04-28 02:22 | 29.81597 | 106.69685 | 2757 ft | 129 kts | 195° |
| 2026-04-28 02:22 | 29.80742 | 106.69390 | 2605 ft | 129 kts | 196° |
| 2026-04-28 02:22 | 29.79879 | 106.69090 | 2425 ft | 129 kts | 194° |
| 2026-04-28 02:23 | 29.79021 | 106.68792 | 2261 ft | 129 kts | 195° |
| 2026-04-28 02:23 | 29.78158 | 106.68490 | 2081 ft | 128 kts | 195° |
| 2026-04-28 02:23 | 29.77306 | 106.68200 | 1912 ft | 128 kts | 194° |
| 2026-04-28 02:23 | 29.76461 | 106.67912 | 1725 ft | 127 kts | 197° |
| 2026-04-28 02:24 | 29.75622 | 106.67593 | 1543 ft | 127 kts | 195° |
| 2026-04-28 02:24 | 29.74783 | 106.67306 | 1410 ft | 126 kts | 195° |
| 2026-04-28 02:24 | 29.74000 | 106.67031 | 1370 ft | 111 kts | 198° |
| 2026-04-28 02:24 | 29.73077 | 106.66673 | 1516 ft | 158 kts | 198° |
| 2026-04-28 02:25 | 29.72349 | 106.66396 | 2102 ft | 154 kts | 197° |
| 2026-04-28 02:25 | 29.72014 | 106.66274 | 2424 ft | 151 kts | 197° |
| 2026-04-28 02:25 | 29.71072 | 106.65937 | 3317 ft | 144 kts | 195° |
| 2026-04-28 02:25 | 29.70090 | 106.65598 | 3890 ft | 153 kts | 195° |
| 2026-04-28 02:26 | 29.69027 | 106.65248 | 4380 ft | 169 kts | 195° |
| 2026-04-28 02:26 | 29.67825 | 106.64908 | 4850 ft | 188 kts | 189° |
| 2026-04-28 02:26 | 29.66482 | 106.64828 | 5428 ft | 202 kts | 178° |
| 2026-04-28 02:26 | 29.65070 | 106.65096 | 5423 ft | 206 kts | 161° |
| 2026-04-28 02:27 | 29.63859 | 106.65949 | 5782 ft | 210 kts | 133° |
| 2026-04-28 02:27 | 29.63273 | 106.67517 | 5869 ft | 222 kts | 97° |
| 2026-04-28 02:27 | 29.63588 | 106.69261 | 5869 ft | 230 kts | 60° |
| 2026-04-28 02:27 | 29.64584 | 106.70600 | 5913 ft | 232 kts | 46° |
| 2026-04-28 02:28 | 29.65740 | 106.71909 | 5904 ft | 232 kts | 45° |
| 2026-04-28 02:28 | 29.66898 | 106.73207 | 5900 ft | 232 kts | 45° |
| 2026-04-28 02:28 | 29.68039 | 106.74505 | 5898 ft | 233 kts | 46° |
| 2026-04-28 02:28 | 29.69197 | 106.75834 | 5897 ft | 233 kts | 46° |
| 2026-04-28 02:29 | 29.70328 | 106.77135 | 5818 ft | 231 kts | 44° |
| 2026-04-28 02:29 | 29.71634 | 106.78238 | 5861 ft | 233 kts | 28° |
| 2026-04-28 02:29 | 29.73134 | 106.78935 | 5887 ft | 234 kts | 18° |
| 2026-04-28 02:29 | 29.74695 | 106.79478 | 5894 ft | 234 kts | 17° |
| 2026-04-28 02:30 | 29.76268 | 106.79998 | 5895 ft | 234 kts | 16° |
| 2026-04-28 02:30 | 29.77841 | 106.80527 | 5897 ft | 234 kts | 17° |
| 2026-04-28 02:30 | 29.79401 | 106.81059 | 5896 ft | 234 kts | 17° |
| 2026-04-28 02:30 | 29.80952 | 106.81594 | 5897 ft | 235 kts | 17° |
| 2026-04-28 02:31 | 29.82521 | 106.82137 | 5897 ft | 234 kts | 17° |
| 2026-04-28 02:31 | 29.84083 | 106.82680 | 5898 ft | 234 kts | 17° |
| 2026-04-28 02:31 | 29.85627 | 106.83218 | 5897 ft | 234 kts | 17° |
| 2026-04-28 02:31 | 29.87194 | 106.83763 | 5897 ft | 234 kts | 17° |
| 2026-04-28 02:32 | 29.88749 | 106.84305 | 5897 ft | 235 kts | 17° |
| 2026-04-28 02:32 | 29.90309 | 106.84849 | 5897 ft | 235 kts | 17° |
| 2026-04-28 02:32 | 29.91889 | 106.85400 | 5897 ft | 235 kts | 17° |
| 2026-04-28 02:32 | 29.93442 | 106.85941 | 5897 ft | 235 kts | 17° |
| 2026-04-28 02:33 | 29.95006 | 106.86485 | 5897 ft | 235 kts | 17° |
| 2026-04-28 02:33 | 29.96564 | 106.87029 | 5893 ft | 230 kts | 17° |
| 2026-04-28 02:33 | 29.98035 | 106.87543 | 5894 ft | 214 kts | 17° |
| 2026-04-28 02:33 | 29.99427 | 106.88033 | 5963 ft | 204 kts | 17° |
| 2026-04-28 02:34 | 30.00799 | 106.88277 | 5908 ft | 202 kts | 352° |
| 2026-04-28 02:34 | 30.02049 | 106.87591 | 5917 ft | 202 kts | 315° |
| 2026-04-28 02:34 | 30.02779 | 106.86214 | 5921 ft | 199 kts | 291° |
| 2026-04-28 02:34 | 30.03263 | 106.84744 | 5907 ft | 198 kts | 288° |
| 2026-04-28 02:35 | 30.03722 | 106.83228 | 5903 ft | 198 kts | 287° |
| 2026-04-28 02:35 | 30.04167 | 106.81739 | 5898 ft | 198 kts | 287° |
| 2026-04-28 02:35 | 30.04535 | 106.80194 | 5893 ft | 197 kts | 275° |
| 2026-04-28 02:35 | 30.04307 | 106.78691 | 5880 ft | 193 kts | 239° |
| 2026-04-28 02:36 | 30.03357 | 106.77592 | 5900 ft | 192 kts | 212° |
| 2026-04-28 02:36 | 30.02175 | 106.76927 | 5905 ft | 192 kts | 200° |
| 2026-04-28 02:36 | 30.00905 | 106.76424 | 5901 ft | 191 kts | 197° |
| 2026-04-28 02:36 | 29.99641 | 106.75970 | 5898 ft | 191 kts | 196° |
| 2026-04-28 02:37 | 29.98371 | 106.75526 | 5897 ft | 191 kts | 196° |
| 2026-04-28 02:37 | 29.97088 | 106.75080 | 5855 ft | 192 kts | 196° |
| 2026-04-28 02:37 | 29.95828 | 106.74643 | 5646 ft | 191 kts | 196° |
| 2026-04-28 02:37 | 29.94570 | 106.74206 | 5391 ft | 190 kts | 196° |
| 2026-04-28 02:38 | 29.93297 | 106.73762 | 5136 ft | 189 kts | 196° |
| 2026-04-28 02:38 | 29.92043 | 106.73325 | 4885 ft | 188 kts | 196° |
| 2026-04-28 02:38 | 29.90797 | 106.72890 | 4635 ft | 188 kts | 196° |
| 2026-04-28 02:38 | 29.89573 | 106.72462 | 4384 ft | 181 kts | 196° |
| 2026-04-28 02:39 | 29.88423 | 106.72060 | 4146 ft | 166 kts | 196° |
| 2026-04-28 02:39 | 29.87329 | 106.71678 | 3929 ft | 163 kts | 196° |
| 2026-04-28 02:39 | 29.86279 | 106.71311 | 3697 ft | 150 kts | 196° |
| 2026-04-28 02:39 | 29.85337 | 106.70982 | 3487 ft | 136 kts | 196° |
| 2026-04-28 02:40 | 29.84457 | 106.70680 | 3301 ft | 130 kts | 195° |
| 2026-04-28 02:40 | 29.83591 | 106.70383 | 3147 ft | 129 kts | 196° |
| 2026-04-28 02:40 | 29.82732 | 106.70082 | 2989 ft | 129 kts | 195° |
| 2026-04-28 02:40 | 29.81881 | 106.69788 | 2829 ft | 128 kts | 196° |
| 2026-04-28 02:41 | 29.81022 | 106.69488 | 2660 ft | 128 kts | 195° |
| 2026-04-28 02:41 | 29.80169 | 106.69191 | 2487 ft | 128 kts | 195° |
| 2026-04-28 02:41 | 29.79319 | 106.68893 | 2316 ft | 127 kts | 195° |
| 2026-04-28 02:41 | 29.78479 | 106.68597 | 2146 ft | 127 kts | 196° |
| 2026-04-28 02:42 | 29.77627 | 106.68302 | 1969 ft | 127 kts | 195° |
| 2026-04-28 02:42 | 29.76790 | 106.68008 | 1770 ft | 127 kts | 195° |
| 2026-04-28 02:42 | 29.75942 | 106.67713 | 1599 ft | 126 kts | 195° |
| 2026-04-28 02:42 | 29.75110 | 106.67411 | 1476 ft | 125 kts | 195° |
| 2026-04-28 02:43 | 29.74289 | 106.67141 | 1370 ft | 116 kts | 195° |
| 2026-04-28 02:43 | 29.73379 | 106.66797 | 1519 ft | 157 kts | 197° |
| 2026-04-28 02:43 | 29.72328 | 106.66425 | 2224 ft | 162 kts | 195° |
| 2026-04-28 02:43 | 29.71311 | 106.66069 | 3248 ft | 151 kts | 193° |
| 2026-04-28 02:44 | 29.70363 | 106.66111 | 4122 ft | 143 kts | 150° |
| 2026-04-28 02:44 | 29.69768 | 106.66989 | 4898 ft | 146 kts | 107° |
| 2026-04-28 02:44 | 29.69821 | 106.68157 | 5532 ft | 160 kts | 65° |
| 2026-04-28 02:44 | 29.70680 | 106.69129 | 5887 ft | 198 kts | 35° |
| 2026-04-28 02:45 | 29.71928 | 106.69994 | 5893 ft | 219 kts | 30° |
| 2026-04-28 02:45 | 29.73319 | 106.70888 | 5909 ft | 232 kts | 30° |
| 2026-04-28 02:45 | 29.74733 | 106.71810 | 5902 ft | 234 kts | 31° |
| 2026-04-28 02:45 | 29.76126 | 106.72739 | 5899 ft | 234 kts | 31° |
| 2026-04-28 02:46 | 29.77537 | 106.73697 | 5823 ft | 233 kts | 31° |
| 2026-04-28 02:46 | 29.78930 | 106.74651 | 5868 ft | 234 kts | 31° |
| 2026-04-28 02:46 | 29.80326 | 106.75613 | 5885 ft | 234 kts | 31° |
| 2026-04-28 02:46 | 29.81733 | 106.76585 | 5892 ft | 235 kts | 31° |
| 2026-04-28 02:47 | 29.83118 | 106.77539 | 5896 ft | 235 kts | 32° |
| 2026-04-28 02:47 | 29.84520 | 106.78505 | 5896 ft | 234 kts | 32° |
| 2026-04-28 02:47 | 29.85893 | 106.79446 | 5853 ft | 223 kts | 31° |
| 2026-04-28 02:47 | 29.87225 | 106.80241 | 5584 ft | 213 kts | 23° |
| 2026-04-28 02:48 | 29.88610 | 106.80762 | 5322 ft | 202 kts | 12° |
| 2026-04-28 02:48 | 29.89943 | 106.80852 | 5087 ft | 188 kts | 355° |
| 2026-04-28 02:48 | 29.91161 | 106.80510 | 4887 ft | 173 kts | 336° |
| 2026-04-28 02:48 | 29.92135 | 106.79816 | 4731 ft | 154 kts | 318° |
| 2026-04-28 02:49 | 29.92786 | 106.78914 | 4528 ft | 141 kts | 297° |
| 2026-04-28 02:49 | 29.93110 | 106.77872 | 4327 ft | 138 kts | 276° |
| 2026-04-28 02:49 | 29.93129 | 106.76781 | 4182 ft | 135 kts | 258° |
| 2026-04-28 02:49 | 29.92842 | 106.75771 | 4198 ft | 132 kts | 240° |
| 2026-04-28 02:50 | 29.92302 | 106.74923 | 4179 ft | 132 kts | 222° |
| 2026-04-28 02:50 | 29.91597 | 106.74236 | 4178 ft | 131 kts | 213° |
| 2026-04-28 02:50 | 29.90802 | 106.73747 | 4181 ft | 131 kts | 204° |
| 2026-04-28 02:50 | 29.90006 | 106.73215 | 4150 ft | 131 kts | 211° |
| 2026-04-28 02:51 | 29.89216 | 106.72719 | 4034 ft | 130 kts | 202° |
| 2026-04-28 02:51 | 29.88376 | 106.72321 | 3888 ft | 130 kts | 198° |
| 2026-04-28 02:51 | 29.87527 | 106.71966 | 3723 ft | 130 kts | 199° |
| 2026-04-28 02:51 | 29.86680 | 106.71585 | 3613 ft | 129 kts | 201° |
| 2026-04-28 02:52 | 29.85842 | 106.71228 | 3574 ft | 129 kts | 195° |
| 2026-04-28 02:52 | 29.84981 | 106.70901 | 3476 ft | 130 kts | 200° |
| 2026-04-28 02:52 | 29.84147 | 106.70511 | 3217 ft | 129 kts | 199° |
| 2026-04-28 02:52 | 29.83295 | 106.70197 | 2988 ft | 128 kts | 193° |
| 2026-04-28 02:53 | 29.82436 | 106.69932 | 2875 ft | 128 kts | 193° |
| 2026-04-28 02:53 | 29.81568 | 106.69693 | 2821 ft | 128 kts | 191° |
| 2026-04-28 02:53 | 29.80708 | 106.69420 | 2603 ft | 128 kts | 195° |
| 2026-04-28 02:53 | 29.79863 | 106.69126 | 2417 ft | 127 kts | 195° |
| 2026-04-28 02:54 | 29.79023 | 106.68781 | 2281 ft | 128 kts | 199° |
| 2026-04-28 02:54 | 29.78188 | 106.68443 | 2033 ft | 127 kts | 195° |
| 2026-04-28 02:54 | 29.77340 | 106.68168 | 1918 ft | 126 kts | 194° |
| 2026-04-28 02:54 | 29.76498 | 106.67900 | 1693 ft | 131 kts | 193° |
| 2026-04-28 02:55 | 29.75632 | 106.67620 | 1584 ft | 127 kts | 197° |
| 2026-04-28 02:55 | 29.74792 | 106.67307 | 1387 ft | 126 kts | 195° |
| 2026-04-28 02:55 | 29.74052 | 106.67062 | 1370 ft | 87 kts | 195° |
| 2026-04-28 02:55 | 29.73487 | 106.66861 | 1370 ft | 110 kts | 197° |
| 2026-04-28 02:56 | 29.72549 | 106.66524 | 1527 ft | 160 kts | 196° |
| 2026-04-28 02:56 | 29.71517 | 106.66148 | 2370 ft | 156 kts | 196° |
| 2026-04-28 02:56 | 29.70553 | 106.65803 | 3336 ft | 147 kts | 195° |
| 2026-04-28 02:56 | 29.69546 | 106.65453 | 4006 ft | 161 kts | 196° |
| 2026-04-28 02:57 | 29.68420 | 106.65146 | 4633 ft | 175 kts | 182° |
| 2026-04-28 02:57 | 29.67268 | 106.65692 | 5131 ft | 192 kts | 134° |
| 2026-04-28 02:57 | 29.66840 | 106.67142 | 5656 ft | 202 kts | 88° |
| 2026-04-28 02:57 | 29.67279 | 106.68677 | 5887 ft | 210 kts | 67° |
| 2026-04-28 02:58 | 29.67933 | 106.70275 | 5849 ft | 226 kts | 65° |
| 2026-04-28 02:58 | 29.68623 | 106.71914 | 5879 ft | 230 kts | 65° |
| 2026-04-28 02:58 | 29.69327 | 106.73592 | 5827 ft | 232 kts | 65° |
| 2026-04-28 02:58 | 29.70022 | 106.75267 | 5846 ft | 232 kts | 65° |
| 2026-04-28 02:59 | 29.70723 | 106.76948 | 5879 ft | 232 kts | 63° |
| 2026-04-28 02:59 | 29.71754 | 106.78339 | 5868 ft | 234 kts | 32° |
| 2026-04-28 02:59 | 29.73283 | 106.79051 | 5907 ft | 235 kts | 17° |
| 2026-04-28 02:59 | 29.74851 | 106.79563 | 5902 ft | 235 kts | 15° |
| 2026-04-28 03:00 | 29.76418 | 106.80064 | 5899 ft | 235 kts | 16° |
| 2026-04-28 03:00 | 29.77986 | 106.80580 | 5898 ft | 235 kts | 17° |
| 2026-04-28 03:00 | 29.79560 | 106.81112 | 5897 ft | 234 kts | 17° |
| 2026-04-28 03:00 | 29.81119 | 106.81650 | 5897 ft | 234 kts | 17° |
| 2026-04-28 03:01 | 29.82679 | 106.82194 | 5897 ft | 235 kts | 17° |
| 2026-04-28 03:01 | 29.84231 | 106.82732 | 5897 ft | 235 kts | 17° |
| 2026-04-28 03:01 | 29.85805 | 106.83280 | 5897 ft | 235 kts | 17° |
| 2026-04-28 03:01 | 29.87357 | 106.83821 | 5897 ft | 235 kts | 17° |
| 2026-04-28 03:02 | 29.88924 | 106.84367 | 5897 ft | 235 kts | 17° |
| 2026-04-28 03:02 | 29.90501 | 106.84916 | 5897 ft | 235 kts | 17° |
| 2026-04-28 03:02 | 29.92052 | 106.85456 | 5897 ft | 235 kts | 17° |
| 2026-04-28 03:02 | 29.93617 | 106.86005 | 5897 ft | 236 kts | 17° |
| 2026-04-28 03:03 | 29.95187 | 106.86550 | 5898 ft | 235 kts | 17° |
| 2026-04-28 03:03 | 29.96739 | 106.87093 | 5896 ft | 235 kts | 17° |
| 2026-04-28 03:03 | 29.98310 | 106.87644 | 5897 ft | 236 kts | 17° |
| 2026-04-28 03:03 | 29.99883 | 106.88192 | 5897 ft | 236 kts | 17° |
| 2026-04-28 03:04 | 30.01439 | 106.88735 | 5898 ft | 235 kts | 17° |
| 2026-04-28 03:04 | 30.02798 | 106.89198 | 5903 ft | 234 kts | 11° |
| 2026-04-28 03:04 | 30.03059 | 106.89259 | 5903 ft | 233 kts | 7° |
| 2026-04-28 03:04 | 30.03525 | 106.89302 | 5897 ft | 232 kts | 356° |
| 2026-04-28 03:05 | 30.05003 | 106.88647 | 5937 ft | 231 kts | 317° |
| 2026-04-28 03:05 | 30.05931 | 106.87161 | 6011 ft | 231 kts | 296° |
| 2026-04-28 03:05 | 30.06362 | 106.86105 | 6033 ft | 232 kts | 294° |
| 2026-04-28 03:05 | 30.07027 | 106.84418 | 6038 ft | 225 kts | 295° |
| 2026-04-28 03:06 | 30.07674 | 106.82847 | 6032 ft | 209 kts | 296° |
| 2026-04-28 03:06 | 30.08176 | 106.81332 | 6119 ft | 201 kts | 277° |
| 2026-04-28 03:06 | 30.07911 | 106.79776 | 6075 ft | 201 kts | 239° |
| 2026-04-28 03:06 | 30.06908 | 106.78687 | 6067 ft | 201 kts | 210° |
| 2026-04-28 03:07 | 30.05635 | 106.78054 | 6059 ft | 201 kts | 199° |
| 2026-04-28 03:07 | 30.04293 | 106.77561 | 6074 ft | 201 kts | 197° |
| 2026-04-28 03:07 | 30.03195 | 106.77185 | 6068 ft | 201 kts | 196° |
| 2026-04-28 03:07 | 30.02397 | 106.76914 | 6054 ft | 201 kts | 196° |
| 2026-04-28 03:08 | 30.01058 | 106.76459 | 6042 ft | 201 kts | 196° |
| 2026-04-28 03:08 | 29.99717 | 106.76000 | 6037 ft | 201 kts | 197° |
| 2026-04-28 03:08 | 29.98418 | 106.75549 | 6012 ft | 183 kts | 197° |
| 2026-04-28 03:08 | 29.97285 | 106.75154 | 5909 ft | 161 kts | 197° |
| 2026-04-28 03:09 | 29.96266 | 106.74799 | 5713 ft | 149 kts | 197° |
| 2026-04-28 03:09 | 29.95283 | 106.74456 | 5503 ft | 146 kts | 197° |
| 2026-04-28 03:09 | 29.94603 | 106.74219 | 5367 ft | 145 kts | 197° |
| 2026-04-28 03:09 | 29.93641 | 106.73884 | 5175 ft | 145 kts | 197° |
| 2026-04-28 03:10 | 29.92679 | 106.73549 | 4983 ft | 145 kts | 197° |
| 2026-04-28 03:10 | 29.91935 | 106.73289 | 4835 ft | 144 kts | 197° |
| 2026-04-28 03:10 | 29.91079 | 106.72991 | 4665 ft | 144 kts | 197° |
| 2026-04-28 03:11 | 29.90132 | 106.72661 | 4476 ft | 143 kts | 197° |
| 2026-04-28 03:11 | 29.89176 | 106.72327 | 4286 ft | 143 kts | 197° |
| 2026-04-28 03:11 | 29.88230 | 106.71997 | 4097 ft | 143 kts | 197° |
| 2026-04-28 03:11 | 29.87282 | 106.71667 | 3908 ft | 142 kts | 197° |
| 2026-04-28 03:12 | 29.86329 | 106.71334 | 3704 ft | 146 kts | 196° |
| 2026-04-28 03:12 | 29.85346 | 106.70993 | 3523 ft | 147 kts | 196° |
| 2026-04-28 03:12 | 29.84363 | 106.70651 | 3331 ft | 148 kts | 196° |
| 2026-04-28 03:12 | 29.83382 | 106.70313 | 3151 ft | 148 kts | 195° |
| 2026-04-28 03:13 | 29.82404 | 106.69979 | 2935 ft | 147 kts | 195° |
| 2026-04-28 03:13 | 29.81414 | 106.69639 | 2731 ft | 147 kts | 196° |
| 2026-04-28 03:13 | 29.80444 | 106.69302 | 2542 ft | 147 kts | 195° |
| 2026-04-28 03:13 | 29.79459 | 106.68973 | 2356 ft | 146 kts | 195° |
| 2026-04-28 03:14 | 29.78502 | 106.68623 | 2157 ft | 146 kts | 199° |
| 2026-04-28 03:14 | 29.77540 | 106.68249 | 1981 ft | 146 kts | 196° |
| 2026-04-28 03:14 | 29.76566 | 106.67925 | 1763 ft | 145 kts | 195° |
| 2026-04-28 03:14 | 29.75597 | 106.67593 | 1578 ft | 145 kts | 196° |
| 2026-04-28 03:15 | 29.74639 | 106.67255 | 1400 ft | 144 kts | 196° |
| 2026-04-28 03:15 | 29.73763 | 106.66963 | 1370 ft | 110 kts | 195° |
| 2026-04-28 03:15 | 29.73213 | 106.66726 | 1370 ft | 61 kts | 227° |
| 2026-04-28 03:15 | 29.73023 | 106.66517 | 1370 ft | 23 kts | 221° |
| 2026-04-28 03:16 | 29.72903 | 106.66451 | 1370 ft | 17 kts | 195° |
| 2026-04-28 03:16 | 29.72825 | 106.66406 | 1370 ft | 8 kts | 268° |
| 2026-04-28 03:16 | 29.72841 | 106.66334 | 1370 ft | 9 kts | 291° |
| 2026-04-28 03:16 | 29.72872 | 106.66258 | 1370 ft | 10 kts | 304° |
| 2026-04-28 03:17 | 29.72927 | 106.66196 | 1370 ft | 11 kts | 322° |
| 2026-04-28 03:17 | 29.72889 | 106.66060 | 1370 ft | 10 kts | 228° |
| 2026-04-28 03:17 | 29.72851 | 106.66027 | 1370 ft | 1 kts | 215° |
| 2026-04-28 03:18 | 29.72850 | 106.66026 | 1370 ft | 0 kts | 216° |